Time;durP1;ratioP1;P1;durP2;ratioP2;P2;SDS_P1;SDS_P2;PMS_P1;PMS_P2;Temp;Humidity;BMP_temperature;BMP_pressure;BME280_temperature;BME280_humidity;BME280_pressure;Samples;Min_cycle;Max_cycle;Signal;HPM_P1;HPM_P2
2022/08/29 00:00:08;;;;;;;8.35;2.33;;;;;;;16.69;83.23;101715.94;5067594;28;20057;-68
2022/08/29 00:02:44;;;;;;;7.72;2.65;;;;;;;16.71;85.45;101713.53;5068554;28;20090;-71
2022/08/29 00:05:11;;;;;;;5.72;2.05;;;;;;;16.67;84.36;101721.94;5067784;28;20048;-69
2022/08/29 00:07:38;;;;;;;7.45;2.22;;;;;;;16.67;85.91;101713.56;5061002;28;20072;-71
2022/08/29 00:10:06;;;;;;;7.20;2.47;;;;;;;16.71;84.43;101705.91;5084879;28;20132;-71
2022/08/29 00:12:32;;;;;;;4.25;1.90;;;;;;;16.68;84.27;101705.97;5074210;28;20056;-71
2022/08/29 00:14:59;;;;;;;8.43;2.30;;;;;;;16.59;86.33;101716.84;5083977;28;20056;-72
2022/08/29 00:17:25;;;;;;;7.65;1.77;;;;;;;16.57;85.40;101719.28;5067838;28;20056;-70
2022/08/29 00:19:52;;;;;;;12.48;2.75;;;;;;;16.53;87.09;101712.91;5076881;28;20052;-71
2022/08/29 00:22:18;;;;;;;3.65;1.35;;;;;;;16.53;87.29;101715.69;5078116;28;20059;-71
2022/08/29 00:24:45;;;;;;;6.75;2.00;;;;;;;16.48;87.73;101710.56;5078362;28;20056;-69
2022/08/29 00:27:11;;;;;;;8.75;2.95;;;;;;;16.46;89.13;101707.38;5072830;28;20049;-72
2022/08/29 00:29:38;;;;;;;6.95;2.13;;;;;;;16.45;88.41;101716.97;5070197;28;20055;-72
2022/08/29 00:32:05;;;;;;;5.97;1.98;;;;;;;16.36;89.03;101711.03;5074481;28;20080;-69
2022/08/29 00:34:32;;;;;;;6.50;2.00;;;;;;;16.30;89.81;101709.91;5078003;28;20048;-70
2022/08/29 00:36:58;;;;;;;5.20;2.08;;;;;;;16.27;89.90;101711.50;5074622;28;20056;-69
2022/08/29 00:39:25;;;;;;;7.82;2.25;;;;;;;16.19;88.65;101704.41;5084829;28;20051;-68
2022/08/29 00:41:52;;;;;;;9.18;2.53;;;;;;;16.23;90.31;101719.13;5084264;28;20051;-69
2022/08/29 00:44:18;;;;;;;9.02;2.50;;;;;;;16.27;90.08;101716.31;5080314;28;20054;-71
2022/08/29 00:46:50;;;;;;;8.15;2.08;;;;;;;16.28;87.98;101718.69;5069986;28;20044;-70
2022/08/29 00:49:23;;;;;;;7.03;1.83;;;;;;;16.29;90.20;101713.88;5082760;28;20049;-70
2022/08/29 00:51:51;;;;;;;6.18;2.00;;;;;;;16.25;89.01;101713.13;5081005;28;20136;-69
2022/08/29 00:54:18;;;;;;;14.40;2.47;;;;;;;16.24;88.05;101719.94;5068785;28;20052;-70
2022/08/29 00:56:45;;;;;;;6.10;2.35;;;;;;;16.21;90.88;101717.97;5077314;28;20050;-71
2022/08/29 00:59:35;;;;;;;10.77;2.60;;;;;;;16.14;90.57;101718.81;5074800;28;20123;-69
2022/08/29 01:02:03;;;;;;;9.02;2.30;;;;;;;16.17;92.38;101717.19;5065214;28;20044;-70
2022/08/29 01:04:31;;;;;;;4.88;2.03;;;;;;;16.18;89.22;101724.34;5080378;28;20062;-70
2022/08/29 01:06:58;;;;;;;9.05;2.20;;;;;;;16.15;90.65;101708.44;5076180;28;20072;-70
2022/08/29 01:09:27;;;;;;;8.25;2.42;;;;;;;16.13;90.82;101710.84;5083055;28;20076;-69
2022/08/29 01:14:58;;;;;;;11.35;2.72;;;;;;;15.98;91.93;101709.34;5075838;28;20048;-69
2022/08/29 01:17:30;;;;;;;8.82;2.83;;;;;;;15.94;91.85;101708.59;5072422;28;20054;-71
2022/08/29 01:19:59;;;;;;;4.32;2.13;;;;;;;15.91;91.52;101709.41;5067535;28;20052;-68
2022/08/29 01:22:56;;;;;;;6.57;2.60;;;;;;;15.81;93.26;101713.88;5069040;28;20206;-70
2022/08/29 01:25:26;;;;;;;4.13;2.15;;;;;;;15.77;94.82;101706.72;5080905;28;20048;-69
2022/08/29 01:28:32;;;;;;;14.05;2.72;;;;;;;15.72;96.64;101709.97;5060226;28;20449;-69
2022/08/29 01:31:12;;;;;;;5.05;2.33;;;;;;;15.72;96.00;101718.34;5059695;28;20059;-72
2022/08/29 01:33:48;;;;;;;5.95;2.22;;;;;;;15.64;93.94;101716.78;5070529;28;20079;-71
2022/08/29 01:36:22;;;;;;;6.75;2.33;;;;;;;15.53;95.26;101709.25;5070347;28;20563;-72
2022/08/29 01:38:49;;;;;;;5.05;2.28;;;;;;;15.52;95.40;101703.31;5079404;28;20054;-72
2022/08/29 01:41:19;;;;;;;5.43;1.95;;;;;;;15.52;97.30;101717.25;5082779;28;20058;-68
2022/08/29 01:43:50;;;;;;;11.43;2.50;;;;;;;15.55;97.62;101713.66;5070013;28;20051;-71
2022/08/29 01:46:25;;;;;;;8.60;2.28;;;;;;;15.45;94.31;101716.09;5065962;28;20060;-73
2022/08/29 01:48:51;;;;;;;9.02;2.28;;;;;;;15.39;95.79;101717.69;5079399;28;20518;-71
2022/08/29 01:51:18;;;;;;;7.72;2.42;;;;;;;15.37;96.58;101720.13;5073056;28;20638;-69
2022/08/29 01:53:45;;;;;;;6.32;2.42;;;;;;;15.35;96.87;101730.84;5070874;28;20056;-71
2022/08/29 01:56:18;;;;;;;7.78;2.53;;;;;;;15.35;96.88;101721.66;5079532;28;20126;-69
2022/08/29 01:58:47;;;;;;;5.82;2.63;;;;;;;15.33;98.39;101726.88;5070578;28;20086;-71
2022/08/29 02:01:17;;;;;;;5.30;2.30;;;;;;;15.36;98.24;101729.66;5083630;28;20308;-69
2022/08/29 02:03:47;;;;;;;7.60;2.30;;;;;;;15.34;97.12;101725.66;5073656;28;20102;-69
2022/08/29 02:06:14;;;;;;;8.75;3.70;;;;;;;15.27;98.27;101731.28;5081975;28;20052;-71
2022/08/29 02:08:43;;;;;;;13.23;2.63;;;;;;;15.24;98.92;101738.47;5073129;28;20076;-69
2022/08/29 02:11:10;;;;;;;8.25;2.42;;;;;;;15.20;97.98;101734.91;5083081;28;20423;-70
2022/08/29 02:13:39;;;;;;;8.30;3.58;;;;;;;15.16;98.87;101741.69;5083328;28;20055;-69
2022/08/29 02:16:06;;;;;;;6.82;2.80;;;;;;;15.08;98.43;101732.53;5069632;28;20051;-70
2022/08/29 02:18:33;;;;;;;6.40;2.70;;;;;;;15.06;98.58;101726.56;5071066;28;20055;-71
2022/08/29 02:21:00;;;;;;;6.40;2.17;;;;;;;15.07;98.12;101730.97;5077354;28;20048;-72
2022/08/29 02:23:27;;;;;;;8.05;2.40;;;;;;;15.07;98.80;101744.91;5068765;28;20097;-71
2022/08/29 02:25:57;;;;;;;6.93;2.60;;;;;;;15.06;97.57;101731.38;5078896;28;20051;-72
2022/08/29 02:28:23;;;;;;;6.13;2.45;;;;;;;14.99;98.23;101732.16;5083034;28;20045;-71
2022/08/29 02:30:52;;;;;;;8.00;2.40;;;;;;;14.92;98.72;101732.19;5087470;28;20484;-71
2022/08/29 02:33:23;;;;;;;9.20;2.60;;;;;;;14.90;99.62;101740.16;5080325;28;20072;-72
2022/08/29 02:35:52;;;;;;;12.65;3.35;;;;;;;14.85;99.41;101740.56;5080741;28;20148;-71
2022/08/29 02:38:19;;;;;;;6.57;2.45;;;;;;;14.78;100.00;101742.59;5074289;28;20048;-71
2022/08/29 02:40:47;;;;;;;7.88;2.65;;;;;;;14.79;100.00;101744.19;5079612;28;20040;-70
2022/08/29 02:43:16;;;;;;;12.52;3.13;;;;;;;14.77;100.00;101754.91;5085808;28;20500;-70
2022/08/29 02:45:44;;;;;;;10.02;2.80;;;;;;;14.78;100.00;101750.97;5067001;28;20166;-71
2022/08/29 02:48:11;;;;;;;7.93;3.08;;;;;;;14.80;100.00;101752.13;5074510;28;20043;-71
2022/08/29 02:50:40;;;;;;;8.32;2.78;;;;;;;14.76;100.00;101742.19;5065867;28;20064;-72
2022/08/29 02:53:06;;;;;;;7.28;2.55;;;;;;;14.75;100.00;101748.97;5074515;28;20420;-68
2022/08/29 02:55:33;;;;;;;10.38;2.70;;;;;;;14.74;100.00;101745.38;5068933;28;20055;-73
2022/08/29 02:58:00;;;;;;;4.80;2.20;;;;;;;14.72;100.00;101744.97;5087032;28;20656;-68
2022/08/29 03:00:27;;;;;;;4.38;1.88;;;;;;;14.68;100.00;101746.97;5075218;28;20054;-71
2022/08/29 03:02:55;;;;;;;8.27;2.42;;;;;;;14.65;100.00;101750.56;5083433;28;20044;-71
2022/08/29 03:05:26;;;;;;;10.20;2.67;;;;;;;14.61;100.00;101735.84;5070196;28;20573;-70
2022/08/29 03:07:54;;;;;;;7.93;2.63;;;;;;;14.61;100.00;101749.78;5075006;28;20143;-69
2022/08/29 03:10:21;;;;;;;7.03;2.47;;;;;;;14.64;100.00;101739.81;5068922;28;20049;-71
2022/08/29 03:12:48;;;;;;;6.90;2.28;;;;;;;14.64;100.00;101743.41;5079466;28;20067;-70
2022/08/29 03:15:16;;;;;;;5.00;2.22;;;;;;;14.60;100.00;101753.75;5078298;28;20073;-71
2022/08/29 03:17:43;;;;;;;10.00;2.67;;;;;;;14.59;100.00;101743.81;5071289;28;20066;-70
2022/08/29 03:20:11;;;;;;;8.50;2.40;;;;;;;14.58;100.00;101761.72;5075865;28;20051;-70
2022/08/29 03:22:38;;;;;;;7.93;2.78;;;;;;;14.58;100.00;101753.34;5080422;28;20523;-70
2022/08/29 03:25:06;;;;;;;8.40;2.85;;;;;;;14.58;100.00;101742.22;5085934;28;20405;-69
2022/08/29 03:27:33;;;;;;;15.70;2.88;;;;;;;14.58;100.00;101750.56;5080944;28;20131;-67
2022/08/29 03:30:00;;;;;;;9.35;2.72;;;;;;;14.60;100.00;101742.63;5076349;28;20131;-70
2022/08/29 03:32:27;;;;;;;9.50;3.28;;;;;;;14.56;100.00;101744.63;5065453;28;20049;-70
2022/08/29 03:34:54;;;;;;;8.70;2.53;;;;;;;14.51;100.00;101730.31;5079498;28;20420;-69
2022/08/29 03:37:20;;;;;;;9.38;3.20;;;;;;;14.52;100.00;101729.09;5067421;28;20045;-69
2022/08/29 03:39:49;;;;;;;7.90;2.30;;;;;;;14.48;100.00;101740.22;5077178;28;20040;-70
2022/08/29 03:42:16;;;;;;;8.80;3.13;;;;;;;14.43;100.00;101748.19;5072379;28;20048;-69
2022/08/29 03:44:42;;;;;;;6.47;2.35;;;;;;;14.40;100.00;101744.22;5081472;28;20492;-71
2022/08/29 03:47:09;;;;;;;7.82;2.45;;;;;;;14.35;100.00;101735.47;5075519;28;20420;-70
2022/08/29 03:49:36;;;;;;;9.90;3.25;;;;;;;14.32;100.00;101736.28;5075884;28;20066;-69
2022/08/29 03:52:04;;;;;;;10.00;2.80;;;;;;;14.30;100.00;101739.44;5081833;28;20049;-70
2022/08/29 03:54:31;;;;;;;7.45;2.65;;;;;;;14.32;100.00;101739.88;5080128;28;20082;-69
2022/08/29 03:56:58;;;;;;;9.57;3.33;;;;;;;14.37;100.00;101736.66;5079548;28;20137;-68
2022/08/29 03:59:25;;;;;;;8.25;3.00;;;;;;;14.40;100.00;101723.94;5070574;28;20044;-71
2022/08/29 04:01:51;;;;;;;8.73;2.90;;;;;;;14.37;100.00;101719.97;5069666;28;20054;-69
2022/08/29 04:07:05;;;;;;;8.15;2.85;;;;;;;14.35;100.00;101729.91;5083516;28;20052;-69
2022/08/29 04:09:32;;;;;;;8.85;3.00;;;;;;;14.36;100.00;101721.16;5081598;28;20142;-70
2022/08/29 04:11:59;;;;;;;7.82;3.00;;;;;;;14.33;100.00;101721.94;5075954;28;20055;-71
2022/08/29 04:14:25;;;;;;;7.10;2.67;;;;;;;14.36;100.00;101720.34;5081740;28;20056;-66
2022/08/29 04:16:52;;;;;;;9.82;3.50;;;;;;;14.35;100.00;101724.34;5061935;28;20052;-70
2022/08/29 04:19:19;;;;;;;13.73;3.28;;;;;;;14.27;100.00;101729.09;5071608;28;20049;-70
2022/08/29 04:21:47;;;;;;;7.30;2.67;;;;;;;14.24;100.00;101727.13;5082953;28;20048;-70
2022/08/29 04:24:15;;;;;;;13.90;3.30;;;;;;;14.21;100.00;101727.09;5083745;28;20059;-70
2022/08/29 04:26:41;;;;;;;11.25;2.58;;;;;;;14.17;100.00;101732.66;5076227;28;20075;-69
2022/08/29 04:29:10;;;;;;;10.52;2.80;;;;;;;14.12;100.00;101737.81;5078885;28;20595;-70
2022/08/29 04:31:37;;;;;;;11.00;3.50;;;;;;;14.09;100.00;101730.25;5052982;28;20059;-68
2022/08/29 04:34:06;;;;;;;12.98;3.05;;;;;;;14.07;100.00;101727.09;5061406;28;20059;-70
2022/08/29 04:36:37;;;;;;;11.48;3.25;;;;;;;14.08;100.00;101735.06;5085004;28;20050;-70
2022/08/29 04:39:05;;;;;;;7.28;3.10;;;;;;;14.12;100.00;101733.06;5074910;28;20512;-70
2022/08/29 04:41:32;;;;;;;11.25;3.70;;;;;;;14.12;100.00;101730.28;5083355;28;20155;-70
2022/08/29 04:44:00;;;;;;;12.60;3.53;;;;;;;14.13;100.00;101734.66;5079922;28;20062;-71
2022/08/29 04:46:27;;;;;;;10.07;2.95;;;;;;;14.10;100.00;101731.84;5067777;28;20051;-71
2022/08/29 04:48:54;;;;;;;9.10;2.95;;;;;;;14.14;100.00;101739.00;5061890;28;20750;-71
2022/08/29 04:51:21;;;;;;;9.40;3.58;;;;;;;14.13;100.00;101733.84;5068248;28;20039;-71
2022/08/29 04:53:52;;;;;;;12.95;2.67;;;;;;;14.11;100.00;101730.69;5076118;28;20047;-70
2022/08/29 04:56:20;;;;;;;9.10;3.00;;;;;;;14.10;100.00;101731.84;5081155;28;20154;-71
2022/08/29 04:58:46;;;;;;;10.27;3.20;;;;;;;14.15;100.00;101742.59;5065785;28;20059;-68
2022/08/29 05:01:16;;;;;;;11.23;3.10;;;;;;;14.15;100.00;101740.63;5067327;28;20055;-71
2022/08/29 05:03:42;;;;;;;8.80;3.05;;;;;;;14.17;100.00;101743.00;5080622;28;20063;-69
2022/08/29 05:06:11;;;;;;;11.55;2.90;;;;;;;14.18;100.00;101745.38;5070725;28;20235;-70
2022/08/29 05:08:40;;;;;;;8.73;2.75;;;;;;;14.20;100.00;101751.34;5068868;28;20063;-71
2022/08/29 05:11:16;;;;;;;9.18;2.97;;;;;;;14.20;100.00;101739.41;5056244;28;20068;-71
2022/08/29 05:13:52;;;;;;;8.95;3.22;;;;;;;14.25;100.00;101739.88;5081645;28;20051;-72
2022/08/29 05:16:18;;;;;;;11.43;3.38;;;;;;;14.30;100.00;101747.81;5073786;28;20051;-71
2022/08/29 05:18:45;;;;;;;8.57;2.90;;;;;;;14.34;100.00;101753.38;5074608;28;20041;-71
2022/08/29 05:21:14;;;;;;;9.98;3.30;;;;;;;14.33;100.00;101758.16;5079829;28;20128;-71
2022/08/29 05:23:40;;;;;;;11.38;3.35;;;;;;;14.29;100.00;101748.19;5084900;28;20086;-66
2022/08/29 05:26:07;;;;;;;16.55;4.45;;;;;;;14.30;100.00;101749.78;5073285;28;20053;-72
2022/08/29 05:28:34;;;;;;;8.73;3.47;;;;;;;14.34;100.00;101756.16;5080166;28;20457;-72
2022/08/29 05:31:01;;;;;;;14.60;5.13;;;;;;;14.41;100.00;101761.72;5060228;28;20083;-72
2022/08/29 05:33:27;;;;;;;15.52;3.60;;;;;;;14.49;100.00;101768.88;5069223;28;20095;-70
2022/08/29 05:35:55;;;;;;;10.70;3.42;;;;;;;14.55;100.00;101754.16;5076086;28;20049;-71
2022/08/29 05:38:21;;;;;;;8.43;3.17;;;;;;;14.61;100.00;101763.69;5076483;28;20051;-71
2022/08/29 05:40:48;;;;;;;9.95;2.85;;;;;;;14.64;100.00;101770.44;5062755;28;20067;-68
2022/08/29 05:43:14;;;;;;;11.70;4.40;;;;;;;14.64;100.00;101774.03;5066705;28;20052;-69
2022/08/29 05:45:41;;;;;;;11.77;3.67;;;;;;;14.64;100.00;101776.81;5067230;28;20052;-72
2022/08/29 05:48:08;;;;;;;9.85;3.38;;;;;;;14.66;100.00;101770.84;5063872;28;20109;-71
2022/08/29 05:50:42;;;;;;;12.65;3.40;;;;;;;14.72;100.00;101775.63;5064003;28;20110;-70
2022/08/29 05:53:12;;;;;;;11.10;3.50;;;;;;;14.79;100.00;101760.91;5069098;28;20091;-70
2022/08/29 05:55:43;;;;;;;11.25;3.90;;;;;;;14.82;100.00;101760.88;5060091;28;20048;-71
2022/08/29 05:58:10;;;;;;;11.00;3.90;;;;;;;14.86;100.00;101758.09;5067518;28;20066;-70
2022/08/29 06:00:45;;;;;;;13.68;4.15;;;;;;;14.86;100.00;101761.69;5058909;28;20055;-71
2022/08/29 06:03:12;;;;;;;11.38;3.80;;;;;;;14.88;100.00;101770.41;5066922;28;20044;-70
2022/08/29 06:05:40;;;;;;;15.27;3.75;;;;;;;14.81;100.00;101764.88;5062999;28;20044;-70
2022/08/29 06:08:06;;;;;;;12.82;4.22;;;;;;;14.82;100.00;101776.81;5062867;28;20135;-72
2022/08/29 06:10:38;;;;;;;15.48;4.18;;;;;;;14.80;100.00;101790.34;5065121;28;20060;-68
2022/08/29 06:13:04;;;;;;;18.38;3.97;;;;;;;14.80;100.00;101795.91;5062935;28;20125;-67
2022/08/29 06:15:31;;;;;;;17.90;4.68;;;;;;;14.86;100.00;101780.38;5064087;28;20048;-68
2022/08/29 06:17:58;;;;;;;17.95;4.65;;;;;;;14.99;100.00;101778.78;5061164;28;20048;-70
2022/08/29 06:20:25;;;;;;;14.60;4.78;;;;;;;15.13;100.00;101781.53;5059887;28;20052;-71
2022/08/29 06:22:51;;;;;;;19.42;5.00;;;;;;;15.29;100.00;101784.66;5056040;28;20132;-72
2022/08/29 06:25:18;;;;;;;20.90;4.93;;;;;;;15.46;100.00;101778.25;5062825;28;20053;-72
2022/08/29 06:28:04;;;;;;;20.38;4.68;;;;;;;15.63;100.00;101782.94;5060028;28;20045;-69
2022/08/29 06:30:32;;;;;;;13.43;4.47;;;;;;;15.78;100.00;101778.88;5063535;28;20071;-70
2022/08/29 06:33:00;;;;;;;15.80;4.25;;;;;;;15.90;100.00;101772.03;5062030;28;20477;-73
2022/08/29 06:35:27;;;;;;;13.82;4.53;;;;;;;16.03;100.00;101767.56;5060699;28;20048;-76
2022/08/29 06:37:54;;;;;;;16.98;4.65;;;;;;;16.18;100.00;101769.84;5060877;28;20052;-74
2022/08/29 06:40:20;;;;;;;22.40;6.07;;;;;;;16.33;100.00;101776.13;5068495;28;20040;-74
2022/08/29 06:42:47;;;;;;;14.20;4.32;;;;;;;16.47;100.00;101781.63;5068744;28;20048;-74
2022/08/29 06:45:14;;;;;;;17.83;4.55;;;;;;;16.61;100.00;101773.13;5062608;28;20577;-76
2022/08/29 06:47:42;;;;;;;21.17;4.57;;;;;;;16.73;100.00;101776.19;5058082;28;20588;-70
2022/08/29 06:50:08;;;;;;;13.88;4.05;;;;;;;16.82;100.00;101778.50;5068474;28;20167;-74
2022/08/29 06:52:35;;;;;;;20.30;4.68;;;;;;;16.82;100.00;101781.28;5062379;28;20057;-74
2022/08/29 06:55:02;;;;;;;12.00;4.50;;;;;;;16.82;100.00;101792.47;5074710;28;20050;-72
2022/08/29 06:57:28;;;;;;;19.73;4.57;;;;;;;16.81;100.00;101790.88;5069219;28;20052;-72
2022/08/29 06:59:55;;;;;;;13.70;3.97;;;;;;;16.83;100.00;101794.84;5066769;28;20053;-76
2022/08/29 07:02:22;;;;;;;12.43;4.05;;;;;;;16.89;100.00;101798.00;5062335;28;20056;-73
2022/08/29 07:04:48;;;;;;;15.00;4.35;;;;;;;16.95;100.00;101797.16;5068568;28;20056;-74
2022/08/29 07:07:15;;;;;;;14.50;4.40;;;;;;;17.06;99.74;101802.59;5065033;28;20058;-72
2022/08/29 07:09:43;;;;;;;19.60;6.75;;;;;;;17.15;99.12;101802.91;5063115;28;20124;-74
2022/08/29 07:12:09;;;;;;;15.95;4.07;;;;;;;17.20;98.38;101808.03;5068913;28;20478;-73
2022/08/29 07:14:36;;;;;;;13.05;3.88;;;;;;;17.27;97.24;101805.97;5070010;28;20090;-70
2022/08/29 07:17:03;;;;;;;13.35;4.05;;;;;;;17.39;96.89;101807.44;5069369;28;20052;-74
2022/08/29 07:19:29;;;;;;;17.63;4.13;;;;;;;17.47;96.23;101811.75;5063607;28;20053;-73
2022/08/29 07:21:57;;;;;;;14.13;4.13;;;;;;;17.54;95.86;101800.47;5060245;28;20041;-72
2022/08/29 07:24:25;;;;;;;14.20;4.35;;;;;;;17.65;94.23;101813.13;5065686;28;20041;-76
2022/08/29 07:26:51;;;;;;;17.40;5.60;;;;;;;17.71;92.18;101805.06;5069074;28;20048;-77
2022/08/29 07:29:20;;;;;;;15.88;4.00;;;;;;;17.83;92.50;101810.88;5057636;28;20089;-74
2022/08/29 07:31:47;;;;;;;10.98;4.07;;;;;;;17.94;91.54;101802.34;5062268;28;20082;-77
2022/08/29 07:34:14;;;;;;;18.95;4.25;;;;;;;18.11;90.54;101806.88;5064706;28;20044;-74
2022/08/29 07:36:41;;;;;;;13.82;3.55;;;;;;;18.29;89.78;101807.41;5064872;28;20055;-73
2022/08/29 07:39:15;;;;;;;19.13;4.13;;;;;;;18.42;88.41;101800.03;5060093;28;20068;-80
2022/08/29 07:41:43;;;;;;;16.05;3.83;;;;;;;18.59;87.38;101810.16;5067581;28;20489;-72
2022/08/29 07:44:11;;;;;;;22.60;4.75;;;;;;;18.70;85.83;101821.97;5064212;28;21028;-72
2022/08/29 07:46:39;;;;;;;16.92;4.10;;;;;;;18.80;85.05;101809.78;5062856;28;20171;-77
2022/08/29 07:49:06;;;;;;;11.30;3.85;;;;;;;18.90;82.87;101814.41;5062727;28;20505;-69
2022/08/29 07:51:34;;;;;;;15.02;4.85;;;;;;;19.03;82.47;101806.97;5067645;28;20062;-73
2022/08/29 07:54:01;;;;;;;16.73;4.28;;;;;;;19.20;82.60;101802.25;5066109;28;20048;-73
2022/08/29 07:56:33;;;;;;;14.85;3.88;;;;;;;19.36;79.70;101797.53;5066775;28;20056;-72
2022/08/29 07:59:03;;;;;;;13.93;3.88;;;;;;;19.48;79.30;101808.09;5051129;28;20057;-73
2022/08/29 08:01:30;;;;;;;14.13;3.60;;;;;;;19.68;78.73;101817.31;5065124;28;20082;-73
2022/08/29 08:03:57;;;;;;;17.42;4.22;;;;;;;19.86;77.22;101809.31;5060643;28;20056;-72
2022/08/29 08:06:24;;;;;;;11.85;3.38;;;;;;;20.13;73.97;101807.13;5062663;28;20052;-73
2022/08/29 08:08:53;;;;;;;12.32;3.28;;;;;;;20.30;72.75;101817.16;5067195;28;20048;-72
2022/08/29 08:11:21;;;;;;;12.85;3.95;;;;;;;20.51;72.55;101820.69;5057886;28;20055;-70
2022/08/29 08:13:49;;;;;;;11.38;3.28;;;;;;;20.49;70.55;101804.25;5062778;28;20063;-69
2022/08/29 08:16:19;;;;;;;8.00;3.33;;;;;;;20.64;69.21;101810.28;5047039;28;20048;-73
2022/08/29 08:18:46;;;;;;;11.75;3.15;;;;;;;20.82;69.17;101813.47;5040650;28;20084;-68
2022/08/29 08:21:13;;;;;;;12.75;3.10;;;;;;;20.92;68.70;101812.41;5044967;28;20051;-69
2022/08/29 08:23:40;;;;;;;12.57;3.50;;;;;;;20.87;67.76;101815.72;5039053;28;20060;-69
2022/08/29 08:26:08;;;;;;;10.60;2.72;;;;;;;20.85;67.20;101823.84;5046000;28;20048;-71
2022/08/29 08:28:35;;;;;;;11.57;2.83;;;;;;;20.85;65.07;101821.03;5039635;28;20053;-67
2022/08/29 08:31:05;;;;;;;10.25;2.72;;;;;;;20.78;64.00;101829.66;5045089;28;20059;-68
2022/08/29 08:33:38;;;;;;;8.27;2.75;;;;;;;20.59;62.19;101830.53;5034837;28;20048;-68
2022/08/29 08:36:18;;;;;;;15.20;3.53;;;;;;;20.74;63.65;101820.47;5045621;28;20729;-67
2022/08/29 08:38:45;;;;;;;14.52;3.67;;;;;;;20.99;64.05;101820.69;5043386;28;20606;-69
2022/08/29 08:41:22;;;;;;;10.75;2.78;;;;;;;21.07;63.42;101822.06;5040367;28;20051;-70
2022/08/29 08:44:06;;;;;;;9.07;3.28;;;;;;;21.20;63.14;101823.72;5049702;28;20052;-69
2022/08/29 08:46:42;;;;;;;13.68;2.88;;;;;;;21.17;62.18;101818.16;5040148;28;20514;-69
2022/08/29 08:49:33;;;;;;;14.63;3.25;;;;;;;21.20;62.04;101817.28;5047392;28;20143;-71
2022/08/29 08:52:05;;;;;;;11.73;3.17;;;;;;;21.35;63.31;101815.66;5043626;28;20053;-69
2022/08/29 08:54:41;;;;;;;11.18;3.42;;;;;;;21.37;62.95;101816.81;5050285;28;20405;-69
2022/08/29 08:57:11;;;;;;;8.20;2.78;;;;;;;21.40;62.47;101815.88;5045102;28;20754;-68
2022/08/29 08:59:42;;;;;;;12.48;3.10;;;;;;;21.55;60.96;101816.28;5046852;28;20777;-69
2022/08/29 09:02:27;;;;;;;11.07;2.60;;;;;;;21.69;59.62;101811.03;5042038;28;20139;-69
2022/08/29 09:04:56;;;;;;;11.23;3.57;;;;;;;21.70;59.13;101817.47;5034110;28;20163;-73
2022/08/29 09:07:26;;;;;;;12.10;3.40;;;;;;;21.82;59.13;101814.69;5044744;28;21142;-70
2022/08/29 09:10:00;;;;;;;13.40;3.28;;;;;;;21.89;58.32;101816.50;5046646;28;20897;-69
2022/08/29 09:12:38;;;;;;;10.88;3.30;;;;;;;21.98;57.35;101816.63;5044013;28;20163;-67
2022/08/29 09:15:10;;;;;;;7.88;2.60;;;;;;;21.99;56.60;101815.38;5040379;28;20049;-71
2022/08/29 09:17:47;;;;;;;7.25;2.70;;;;;;;21.92;56.56;101813.59;5047936;28;20048;-69
2022/08/29 09:20:21;;;;;;;8.40;2.78;;;;;;;21.94;56.65;101822.34;5037790;28;20053;-71
2022/08/29 09:22:59;;;;;;;8.82;2.78;;;;;;;21.86;56.26;101829.47;5038789;28;20052;-69
2022/08/29 09:25:28;;;;;;;12.70;3.13;;;;;;;21.91;57.03;101839.41;5036828;28;20045;-69
2022/08/29 09:27:57;;;;;;;12.98;3.42;;;;;;;21.83;57.12;101826.72;5045459;28;20059;-71
2022/08/29 09:30:29;;;;;;;11.63;3.58;;;;;;;21.78;56.22;101830.13;5037344;28;20505;-73
2022/08/29 09:33:01;;;;;;;16.95;3.63;;;;;;;21.70;57.08;101829.50;5037308;28;20044;-70
2022/08/29 09:35:46;;;;;;;15.07;3.10;;;;;;;21.79;57.09;101831.69;5037326;28;20061;-71
2022/08/29 09:38:24;;;;;;;12.45;3.17;;;;;;;21.86;56.86;101828.66;5038249;28;20049;-70
2022/08/29 09:41:00;;;;;;;13.93;3.10;;;;;;;21.93;56.68;101826.41;5044658;28;20044;-71
2022/08/29 09:43:38;;;;;;;14.70;3.35;;;;;;;22.08;57.00;101832.41;5046337;28;20056;-72
2022/08/29 09:46:16;;;;;;;38.35;15.02;;;;;;;22.07;55.86;101828.81;5047023;28;20053;-71
2022/08/29 09:49:08;;;;;;;13.02;3.40;;;;;;;21.99;55.69;101835.91;5046887;28;20642;-70
2022/08/29 09:51:39;;;;;;;19.85;3.58;;;;;;;22.01;56.28;101832.66;5037072;28;20044;-71
2022/08/29 09:54:26;;;;;;;12.52;3.53;;;;;;;21.99;56.00;101829.47;5046444;28;20048;-72
2022/08/29 09:57:00;;;;;;;11.63;3.55;;;;;;;21.97;56.63;101829.16;5045805;28;20112;-71
2022/08/29 09:59:32;;;;;;;12.50;3.72;;;;;;;22.00;56.88;101814.94;5045701;28;20179;-73
2022/08/29 10:02:26;;;;;;;11.00;3.28;;;;;;;22.02;56.19;101822.94;5029940;28;20084;-75
2022/08/29 10:04:58;;;;;;;12.98;3.10;;;;;;;21.97;56.66;101815.06;5030630;28;20052;-75
2022/08/29 10:07:29;;;;;;;11.43;3.22;;;;;;;21.96;56.90;101816.28;5043973;28;20127;-75
2022/08/29 10:10:17;;;;;;;14.07;3.00;;;;;;;22.13;56.70;101827.00;5047411;28;20583;-73
2022/08/29 10:13:05;;;;;;;13.75;3.55;;;;;;;22.41;56.34;101816.88;5047302;28;20045;-74
2022/08/29 10:15:43;;;;;;;10.05;3.05;;;;;;;22.54;54.73;101804.34;5049496;28;20044;-74
2022/08/29 10:18:35;;;;;;;12.00;3.30;;;;;;;22.77;53.30;101810.88;5048352;28;20056;-73
2022/08/29 10:21:17;;;;;;;9.35;3.00;;;;;;;22.87;51.80;101818.19;5054922;28;20063;-73
2022/08/29 10:24:03;;;;;;;18.10;3.20;;;;;;;23.09;51.86;101814.16;5042898;28;20060;-72
2022/08/29 10:26:51;;;;;;;14.27;3.45;;;;;;;23.18;51.05;101808.56;5049035;28;20075;-73
2022/08/29 10:29:27;;;;;;;8.90;3.80;;;;;;;23.24;50.93;101795.47;5045957;28;20049;-72
2022/08/29 10:32:06;;;;;;;9.38;3.35;;;;;;;23.36;51.13;101799.50;5045975;28;20040;-73
2022/08/29 10:35:23;;;;;;;11.52;3.70;;;;;;;23.60;49.95;101798.56;5043768;28;20848;-70
2022/08/29 10:38:12;;;;;;;9.13;3.22;;;;;;;23.89;49.37;101804.69;5045965;28;20167;-71
2022/08/29 10:40:47;;;;;;;14.23;3.20;;;;;;;24.13;48.68;101805.78;5046223;28;20052;-71
2022/08/29 10:43:58;;;;;;;10.82;3.10;;;;;;;24.28;47.59;101806.00;5054347;28;20760;-72
2022/08/29 10:46:42;;;;;;;7.88;3.03;;;;;;;24.27;46.00;101810.09;4975403;28;20054;-73
2022/08/29 10:49:39;;;;;;;15.13;3.75;;;;;;;24.04;46.85;101799.31;5044788;28;20048;-73
2022/08/29 10:52:25;;;;;;;11.50;3.28;;;;;;;23.97;46.53;101794.75;5047110;28;20080;-71
2022/08/29 10:54:55;;;;;;;11.02;3.72;;;;;;;24.23;47.18;101795.31;5045675;28;20515;-72
2022/08/29 10:57:46;;;;;;;18.95;4.15;;;;;;;24.59;46.38;101792.59;5047654;28;20602;-74
2022/08/29 11:00:23;;;;;;;14.10;3.65;;;;;;;24.86;45.45;101798.31;5043789;28;20045;-71
2022/08/29 11:03:05;;;;;;;15.75;3.85;;;;;;;24.36;44.26;101790.31;5049346;28;20515;-73
2022/08/29 11:05:39;;;;;;;10.63;3.63;;;;;;;24.68;45.81;101793.44;5047119;28;20814;-73
2022/08/29 11:08:16;;;;;;;10.60;3.25;;;;;;;24.53;44.98;101789.59;5037978;28;20068;-73
2022/08/29 11:10:48;;;;;;;11.25;3.38;;;;;;;24.62;44.60;101780.31;5048859;28;20064;-73
2022/08/29 11:13:44;;;;;;;11.50;3.22;;;;;;;25.09;44.12;101775.84;5048121;28;20118;-70
2022/08/29 11:16:22;;;;;;;16.23;4.07;;;;;;;25.13;42.88;101777.75;5034993;28;20156;-71
2022/08/29 11:18:54;;;;;;;14.02;4.00;;;;;;;25.17;43.29;101772.72;5050131;28;20159;-70
2022/08/29 11:21:33;;;;;;;13.85;3.97;;;;;;;25.29;43.41;101761.19;5051413;28;20072;-70
2022/08/29 11:24:03;;;;;;;10.98;3.28;;;;;;;25.63;42.79;101757.22;5047255;28;20088;-71
2022/08/29 11:27:06;;;;;;;10.93;3.40;;;;;;;25.99;41.26;101759.97;5040511;28;20052;-68
2022/08/29 11:29:53;;;;;;;12.43;3.38;;;;;;;26.24;41.40;101762.38;5036875;28;20053;-71
2022/08/29 11:32:50;;;;;;;13.13;4.20;;;;;;;26.55;40.68;101748.63;5044869;28;20098;-71
2022/08/29 11:35:23;;;;;;;12.10;3.40;;;;;;;26.72;40.60;101750.59;5045961;28;20056;-69
2022/08/29 11:38:06;;;;;;;10.30;3.03;;;;;;;26.83;39.97;101742.28;5044269;28;20052;-74
2022/08/29 11:41:14;;;;;;;11.25;3.67;;;;;;;26.99;38.96;101741.06;5045539;28;20051;-74